createdAt,value
2018-03-26T00:01:39.628Z,34.30
2018-03-26T00:06:13.639Z,55.80
2018-03-26T00:10:46.919Z,78.53
2018-03-26T00:15:21.092Z,98.07
2018-03-26T00:19:55.312Z,50.23
2018-03-26T00:24:30.011Z,70.87
2018-03-26T00:29:03.473Z,58.13
2018-03-26T00:33:37.488Z,30.57
2018-03-26T00:38:11.070Z,40.30
2018-03-26T00:42:44.632Z,66.33
2018-03-26T00:47:18.648Z,59.43
2018-03-26T00:51:52.716Z,46.47
2018-03-26T00:56:26.018Z,33.63
2018-03-26T01:01:00.062Z,36.57
2018-03-26T01:05:33.356Z,31.03
2018-03-26T01:10:06.598Z,30.73
2018-03-26T01:14:40.189Z,32.17
2018-03-26T01:19:13.458Z,53.20
2018-03-26T01:23:47.706Z,34.03
2018-03-26T01:28:21.103Z,38.97
2018-03-26T01:32:55.642Z,35.80
2018-03-26T01:37:29.633Z,35.17
2018-03-26T01:42:02.892Z,31.70
2018-03-26T01:46:36.120Z,46.60
2018-03-26T01:51:09.523Z,38.67
2018-03-26T01:55:42.790Z,38.47
2018-03-26T02:00:17.032Z,48.60
2018-03-26T02:04:51.058Z,42.60
2018-03-26T02:09:25.343Z,36.93
2018-03-26T02:13:58.734Z,37.47
2018-03-26T02:18:32.020Z,35.07
2018-03-26T02:23:05.312Z,35.00
2018-03-26T02:27:39.886Z,30.60
2018-03-26T02:32:13.881Z,30.20
2018-03-26T02:36:47.944Z,54.03
2018-03-26T02:41:21.432Z,29.17
2018-03-26T02:45:54.834Z,30.53
2018-03-26T02:50:28.838Z,35.03
2018-03-26T02:55:02.399Z,30.80
2018-03-26T02:59:35.785Z,35.40
2018-03-26T03:04:09.828Z,32.90
2018-03-26T03:08:43.149Z,30.33
2018-03-26T03:13:16.755Z,28.77
2018-03-26T03:17:49.991Z,29.77
2018-03-26T03:22:23.443Z,28.50
2018-03-26T03:26:56.765Z,34.67
2018-03-26T03:31:31.375Z,32.17
2018-03-26T03:36:04.950Z,33.10
2018-03-26T03:40:38.222Z,29.23
2018-03-26T03:45:12.816Z,32.53
2018-03-26T03:49:46.086Z,29.03
2018-03-26T03:54:19.527Z,29.47
2018-03-26T03:58:52.900Z,31.20
2018-03-26T04:03:26.897Z,33.90
2018-03-26T04:08:00.974Z,35.17
2018-03-26T04:12:34.210Z,30.27
2018-03-26T04:17:07.600Z,29.00
2018-03-26T04:21:40.863Z,36.60
2018-03-26T04:26:14.229Z,37.70
2018-03-26T04:30:47.702Z,33.33
2018-03-26T04:35:21.765Z,35.07
2018-03-26T04:39:55.139Z,31.50
2018-03-26T04:44:29.406Z,32.83
2018-03-26T04:49:02.674Z,29.53
2018-03-26T04:53:37.041Z,33.43
2018-03-26T04:58:10.428Z,35.53
2018-03-26T05:02:44.478Z,34.07
2018-03-26T05:07:17.858Z,31.17
2018-03-26T05:11:51.886Z,35.57
2018-03-26T05:16:25.929Z,33.27
2018-03-26T05:20:59.179Z,29.47
2018-03-26T05:25:32.436Z,39.27
2018-03-26T05:30:06.577Z,34.40
2018-03-26T05:34:40.439Z,32.17
2018-03-26T05:39:13.705Z,34.70
2018-03-26T05:43:46.979Z,33.33
2018-03-26T05:48:20.330Z,33.33
2018-03-26T05:52:53.594Z,41.37
2018-03-26T05:57:27.026Z,37.67
2018-03-26T06:02:01.076Z,38.23
2018-03-26T06:06:34.917Z,43.07
2018-03-26T06:11:08.245Z,37.80
2018-03-26T06:15:41.506Z,41.13
2018-03-26T06:20:14.799Z,44.37
2018-03-26T06:24:49.647Z,44.00
2018-03-26T06:29:24.354Z,45.73
2018-03-26T06:33:57.610Z,124.10
2018-03-26T06:38:37.683Z,91.80
2018-03-26T06:43:11.686Z,89.63
2018-03-26T06:47:45.736Z,67.87
2018-03-26T06:52:19.057Z,52.23
2018-03-26T06:56:52.433Z,57.53
2018-03-26T07:01:26.482Z,55.43
2018-03-26T07:05:59.719Z,94.40
2018-03-26T07:10:33.191Z,63.57
2018-03-26T07:15:06.520Z,68.20
2018-03-26T07:19:40.557Z,62.27
2018-03-26T07:24:13.867Z,71.93
2018-03-26T07:28:47.723Z,56.27
2018-03-26T07:33:21.719Z,58.33
2018-03-26T07:37:55.317Z,79.30
2018-03-26T07:42:28.620Z,84.57
2018-03-26T07:47:01.941Z,69.23
2018-03-26T07:51:35.171Z,53.07
2018-03-26T07:56:09.374Z,53.10
2018-03-26T08:00:42.787Z,51.93
2018-03-26T08:05:16.044Z,49.50
2018-03-26T08:09:49.392Z,52.47
2018-03-26T08:14:22.885Z,48.20
2018-03-26T08:18:57.044Z,51.10
2018-03-26T08:23:30.306Z,50.07
2018-03-26T08:28:03.565Z,47.33
2018-03-26T08:32:36.944Z,52.93
2018-03-26T08:37:10.937Z,54.53
2018-03-26T08:41:44.380Z,63.70
2018-03-26T08:46:18.411Z,55.33
2018-03-26T08:50:53.074Z,62.93
2018-03-26T08:55:26.354Z,57.17
2018-03-26T09:00:00.412Z,61.87
2018-03-26T09:04:33.718Z,56.77
2018-03-26T09:09:07.282Z,62.67
2018-03-26T09:13:40.717Z,59.87
2018-03-26T09:18:14.713Z,63.27
2018-03-26T09:22:47.997Z,61.93
2018-03-26T09:27:21.417Z,61.10
2018-03-26T09:31:54.798Z,64.03
2018-03-26T09:36:28.105Z,62.63
2018-03-26T09:41:01.378Z,64.60
2018-03-26T09:45:35.443Z,65.50
2018-03-26T09:50:09.064Z,70.57
2018-03-26T09:54:42.445Z,64.73
2018-03-26T09:59:17.301Z,64.53
2018-03-26T10:03:50.538Z,62.50
2018-03-26T10:08:23.910Z,66.60
2018-03-26T10:12:57.913Z,59.58
2018-03-26T10:17:31.282Z,55.45
2018-03-26T10:22:05.332Z,53.97
2018-03-26T10:26:39.425Z,59.92
2018-03-26T10:31:13.721Z,54.97
2018-03-26T10:35:47.714Z,54.15
2018-03-26T10:40:20.956Z,54.13
2018-03-26T10:44:55.010Z,54.75
2018-03-26T10:49:28.288Z,51.03
2018-03-26T10:54:02.427Z,53.97
2018-03-26T10:58:36.851Z,51.15
2018-03-26T11:03:11.014Z,53.63
2018-03-26T11:07:44.305Z,44.45
2018-03-26T11:12:17.592Z,43.90
2018-03-26T11:16:51.048Z,44.00
2018-03-26T11:21:25.028Z,39.83
2018-03-26T11:25:59.033Z,43.17
2018-03-26T11:30:32.380Z,43.20
2018-03-26T11:35:06.744Z,44.20
2018-03-26T11:39:40.330Z,37.58
2018-03-26T11:44:14.839Z,44.85
2018-03-26T11:48:48.092Z,41.92
2018-03-26T11:53:21.418Z,40.50
2018-03-26T11:57:54.695Z,49.47
2018-03-26T12:02:29.775Z,39.83
2018-03-26T12:07:03.031Z,38.58
2018-03-26T12:11:37.092Z,35.40
2018-03-26T12:16:10.431Z,38.03
2018-03-26T12:20:56.469Z,34.65
2018-03-26T12:25:29.833Z,34.88
2018-03-26T12:30:13.868Z,36.38
2018-03-26T12:34:59.807Z,41.05
2018-03-26T12:39:33.304Z,40.72
2018-03-26T12:44:06.723Z,43.95
2018-03-26T12:48:40.014Z,40.12
2018-03-26T12:53:13.522Z,42.30
2018-03-26T12:57:59.104Z,41.90
2018-03-26T13:02:33.244Z,43.30
2018-03-26T13:07:07.685Z,38.38
2018-03-26T13:11:42.108Z,37.53
2018-03-26T13:16:16.171Z,39.03
2018-03-26T13:20:49.558Z,39.47
2018-03-26T13:25:23.788Z,31.00
2018-03-26T13:29:57.854Z,31.00
2018-03-26T13:34:31.256Z,28.77
2018-03-26T13:39:04.730Z,31.90
2018-03-26T13:43:38.966Z,32.05
2018-03-26T13:48:12.384Z,33.85
2018-03-26T13:52:45.661Z,35.33
2018-03-26T13:57:19.141Z,35.75
2018-03-26T14:01:52.434Z,37.25
2018-03-26T14:06:25.871Z,38.00
2018-03-26T14:11:10.990Z,35.08
2018-03-26T14:15:56.917Z,33.70
2018-03-26T14:20:31.140Z,35.65
2018-03-26T14:25:05.269Z,36.00
2018-03-26T14:29:39.451Z,32.08
2018-03-26T14:34:13.040Z,35.95
2018-03-26T14:38:46.987Z,29.55
2018-03-26T14:43:20.962Z,31.62
2018-03-26T14:47:55.092Z,29.55
2018-03-26T14:52:29.473Z,24.17
2018-03-26T14:57:02.714Z,29.20
2018-03-26T15:01:35.998Z,29.02
2018-03-26T15:06:09.231Z,27.50
2018-03-26T15:10:42.672Z,27.73
2018-03-26T15:15:16.075Z,28.00
2018-03-26T15:19:50.093Z,23.83
2018-03-26T15:24:24.135Z,24.63
2018-03-26T15:28:57.537Z,19.37
2018-03-26T15:33:31.572Z,26.73
2018-03-26T15:38:04.847Z,20.80
2018-03-26T15:42:38.122Z,18.17
2018-03-26T15:47:11.389Z,21.30
2018-03-26T15:51:45.524Z,22.10
2018-03-26T15:56:18.806Z,20.90
2018-03-26T16:00:52.079Z,22.23
2018-03-26T16:05:25.338Z,21.77
2018-03-26T16:09:58.642Z,19.27
2018-03-26T16:14:32.820Z,17.23
2018-03-26T16:19:06.051Z,16.20
2018-03-26T16:23:39.499Z,11.63
2018-03-26T16:28:13.557Z,10.43
2018-03-26T16:32:46.937Z,13.13
2018-03-26T16:37:20.986Z,15.47
2018-03-26T16:41:54.301Z,13.47
2018-03-26T16:46:27.534Z,14.97
2018-03-26T16:51:00.818Z,28.20
2018-03-26T16:55:34.838Z,37.37
2018-03-26T17:00:08.122Z,43.60
2018-03-26T17:04:42.216Z,41.73
2018-03-26T17:09:15.661Z,43.17
2018-03-26T17:13:48.899Z,42.07
2018-03-26T17:18:22.173Z,41.47
2018-03-26T17:22:56.468Z,45.77
2018-03-26T17:27:29.733Z,44.60
2018-03-26T17:32:03.245Z,43.80
2018-03-26T17:36:36.645Z,45.50
2018-03-26T17:41:10.682Z,47.47
2018-03-26T17:45:43.971Z,44.80
2018-03-26T17:50:17.306Z,66.57
2018-03-26T17:54:50.693Z,54.53
2018-03-26T17:59:24.745Z,51.13
2018-03-26T18:03:58.053Z,56.03
2018-03-26T18:08:31.361Z,60.03
2018-03-26T18:13:04.633Z,55.07
2018-03-26T18:17:39.362Z,54.00
2018-03-26T18:22:12.740Z,44.27
2018-03-26T18:26:46.006Z,40.07
2018-03-26T18:31:20.174Z,29.97
2018-03-26T18:35:53.478Z,26.73
2018-03-26T18:40:26.964Z,24.93
2018-03-26T18:45:00.973Z,28.80
2018-03-26T18:49:34.239Z,12.67
2018-03-26T18:54:08.237Z,8.97
2018-03-26T18:58:41.558Z,11.37
2018-03-26T19:03:14.830Z,12.03
2018-03-26T19:07:48.965Z,9.97
2018-03-26T19:12:23.024Z,12.73
2018-03-26T19:16:56.292Z,12.17
2018-03-26T19:21:31.046Z,15.90
2018-03-26T19:26:05.069Z,20.83
2018-03-26T19:30:39.203Z,18.80
2018-03-26T19:35:13.194Z,38.77
2018-03-26T19:39:46.499Z,25.47
2018-03-26T19:44:19.742Z,18.27
2018-03-26T19:48:53.765Z,31.67
2018-03-26T19:53:27.786Z,26.67
2018-03-26T20:08:00.704Z,16.70
2018-03-26T20:12:34.034Z,21.47
2018-03-26T20:17:07.547Z,26.27
2018-03-26T20:21:41.992Z,18.73
2018-03-26T20:26:15.668Z,37.83
2018-03-26T20:30:49.827Z,32.63
2018-03-26T20:35:23.142Z,18.63
2018-03-26T20:39:56.407Z,19.57
2018-03-26T20:44:31.079Z,29.33
2018-03-26T20:49:04.468Z,16.43
2018-03-26T20:53:38.516Z,17.30
2018-03-26T20:58:11.782Z,14.80
2018-03-26T21:02:45.821Z,20.43
2018-03-26T21:07:19.957Z,14.47
2018-03-26T21:11:54.083Z,14.57
2018-03-26T21:16:28.438Z,17.40
2018-03-26T21:21:01.722Z,15.83
2018-03-26T21:25:35.862Z,14.43
2018-03-26T21:30:10.007Z,16.93
2018-03-26T21:34:43.466Z,12.33
2018-03-26T21:39:17.774Z,28.17
2018-03-26T21:43:51.045Z,13.30
2018-03-26T21:48:25.778Z,14.53
2018-03-26T21:52:59.908Z,15.47
2018-03-26T21:57:33.957Z,22.83
2018-03-26T22:02:07.367Z,20.23
2018-03-26T22:06:40.653Z,28.07
2018-03-26T22:11:14.841Z,28.43
2018-03-26T22:15:48.055Z,12.57
2018-03-26T22:20:21.320Z,35.80
2018-03-26T22:24:54.636Z,39.93
2018-03-26T22:29:27.894Z,22.63
2018-03-26T22:34:01.964Z,13.80
2018-03-26T22:38:35.246Z,17.37
2018-03-26T22:43:09.379Z,20.63
2018-03-26T22:47:43.505Z,21.00
2018-03-26T22:52:17.668Z,16.33
2018-03-26T22:56:51.151Z,15.83
2018-03-26T23:01:25.390Z,16.50
2018-03-26T23:05:58.650Z,31.37
2018-03-26T23:10:32.123Z,47.53
2018-03-26T23:15:05.881Z,45.50
2018-03-26T23:19:39.187Z,73.97
2018-03-26T23:24:13.179Z,18.07
2018-03-26T23:28:47.158Z,16.27
2018-03-26T23:33:20.586Z,35.93
2018-03-26T23:37:54.837Z,25.10
2018-03-26T23:42:28.427Z,22.07
2018-03-26T23:47:01.707Z,26.73
2018-03-26T23:51:34.956Z,25.87
2018-03-26T23:56:09.187Z,22.67
